首页
METAR-TAF:

METAR-TAF

机场 :

蘇丹哈桑丁國際機場

望加錫, 南苏拉威西省, 印度尼西亚

纬度: 05-04S, 经度: 119-33E, 海拔: 14米

当前天气观测

该预报发布于41分钟前的16:30 UTC
风速3节,风向西
温度 26°C
湿度 94%
气压 1010 hPa
能見度: 8000
少量云层高于1800英尺, 积雨云.
散云层高于1900英尺

METAR: WAAA 121630Z 26003KT 8000 FEW018CB SCT019 26/25 Q1010 RERA NOSIG

时间: 00:11 (17:11 UTC)

预报

该预报发布于6小时和11分钟前的11:00 UTC
预报有效从12日的 12点(UTC)到 13日的 18点(UTC)
风速5节,风向
能見度: 8000
少量云层高于1800英尺, 积雨云.
散云层高于1900英尺
短暂存在
从 12日的 15点(UTC)到 12日的 17点(UTC)
能見度: 5000
少量云层高于1800英尺, 积雨云.
雷暴, 小雨
成为
从 12日的 20点(UTC)到 12日的 22点(UTC)
能见度10公里或以上
成为
从 13日的 02点(UTC)到 13日的 04点(UTC)
风速10节,风向西北

TAF: WAAA 121100Z 1212/1318 10005KT 8000 FEW018CB SCT019 TEMPO 1215/1217 5000 -TSRA FEW018CB BECMG 1220/1222 9999 BECMG 1302/1304 31010KT

超过4000个机场的气象观测和天气预报(METAR&TAF报告)。

可查询的气象台以黄色和红色小点在地图上表示。

将鼠标移到小点上方,可查看气象台名称。

然后点击查看天气观测和预报。

如需切换地图:点击带黑十字的绿色按钮放大地图;点击带横线的绿色按钮缩小地图;或者点击绿色箭头查看邻近地区的地图。


METAR-TAF: